sensor_id;sensor_type;location;lat;lon;timestamp;P1;durP1;ratioP1;P2;durP2;ratioP2
67715;SDS011;54508;43.238;25.306;2023-06-26T00:02:25;4.83;;;3.00;;
67715;SDS011;54508;43.238;25.306;2023-06-26T00:04:50;4.40;;;3.00;;
67715;SDS011;54508;43.238;25.306;2023-06-26T00:07:19;4.07;;;3.30;;
67715;SDS011;54508;43.238;25.306;2023-06-26T00:09:45;4.55;;;2.88;;
67715;SDS011;54508;43.238;25.306;2023-06-26T00:12:11;3.30;;;2.88;;
67715;SDS011;54508;43.238;25.306;2023-06-26T00:14:36;3.43;;;3.07;;
67715;SDS011;54508;43.238;25.306;2023-06-26T00:17:01;4.97;;;3.43;;
67715;SDS011;54508;43.238;25.306;2023-06-26T00:19:27;5.63;;;2.97;;
67715;SDS011;54508;43.238;25.306;2023-06-26T00:21:52;3.83;;;2.90;;
67715;SDS011;54508;43.238;25.306;2023-06-26T00:24:18;4.40;;;2.93;;
67715;SDS011;54508;43.238;25.306;2023-06-26T00:26:46;4.73;;;3.23;;
67715;SDS011;54508;43.238;25.306;2023-06-26T00:29:12;5.30;;;3.35;;
67715;SDS011;54508;43.238;25.306;2023-06-26T00:31:37;3.13;;;2.73;;
67715;SDS011;54508;43.238;25.306;2023-06-26T00:34:05;4.53;;;3.20;;
67715;SDS011;54508;43.238;25.306;2023-06-26T00:36:30;5.32;;;3.15;;
67715;SDS011;54508;43.238;25.306;2023-06-26T00:38:56;4.60;;;3.40;;
67715;SDS011;54508;43.238;25.306;2023-06-26T00:41:21;3.97;;;2.77;;
67715;SDS011;54508;43.238;25.306;2023-06-26T00:43:49;5.97;;;3.30;;
67715;SDS011;54508;43.238;25.306;2023-06-26T00:46:16;6.72;;;3.30;;
67715;SDS011;54508;43.238;25.306;2023-06-26T00:48:42;3.93;;;2.67;;
67715;SDS011;54508;43.238;25.306;2023-06-26T00:51:08;5.90;;;2.65;;
67715;SDS011;54508;43.238;25.306;2023-06-26T00:53:33;4.50;;;3.23;;
67715;SDS011;54508;43.238;25.306;2023-06-26T00:55:59;6.45;;;3.45;;
67715;SDS011;54508;43.238;25.306;2023-06-26T00:58:26;4.85;;;3.30;;
67715;SDS011;54508;43.238;25.306;2023-06-26T01:00:52;4.47;;;3.27;;
67715;SDS011;54508;43.238;25.306;2023-06-26T01:03:18;4.68;;;3.00;;
67715;SDS011;54508;43.238;25.306;2023-06-26T01:05:50;4.20;;;3.10;;
67715;SDS011;54508;43.238;25.306;2023-06-26T01:08:17;3.88;;;2.88;;
67715;SDS011;54508;43.238;25.306;2023-06-26T01:10:43;4.57;;;3.40;;
67715;SDS011;54508;43.238;25.306;2023-06-26T01:13:08;3.90;;;2.75;;
67715;SDS011;54508;43.238;25.306;2023-06-26T01:15:34;4.20;;;3.30;;
67715;SDS011;54508;43.238;25.306;2023-06-26T01:17:59;4.47;;;3.23;;
67715;SDS011;54508;43.238;25.306;2023-06-26T01:20:35;4.90;;;2.60;;
67715;SDS011;54508;43.238;25.306;2023-06-26T01:28:36;5.63;;;3.03;;
67715;SDS011;54508;43.238;25.306;2023-06-26T01:31:03;4.13;;;2.93;;
67715;SDS011;54508;43.238;25.306;2023-06-26T01:33:29;5.50;;;3.42;;
67715;SDS011;54508;43.238;25.306;2023-06-26T01:35:55;4.70;;;3.15;;
67715;SDS011;54508;43.238;25.306;2023-06-26T01:38:21;3.87;;;2.87;;
67715;SDS011;54508;43.238;25.306;2023-06-26T01:40:51;5.20;;;3.17;;
67715;SDS011;54508;43.238;25.306;2023-06-26T01:45:51;4.60;;;3.10;;
67715;SDS011;54508;43.238;25.306;2023-06-26T01:48:20;5.37;;;2.80;;
67715;SDS011;54508;43.238;25.306;2023-06-26T01:50:48;3.95;;;3.00;;
67715;SDS011;54508;43.238;25.306;2023-06-26T01:53:21;3.60;;;3.10;;
67715;SDS011;54508;43.238;25.306;2023-06-26T01:55:51;6.57;;;2.90;;
67715;SDS011;54508;43.238;25.306;2023-06-26T01:58:22;4.05;;;2.72;;
67715;SDS011;54508;43.238;25.306;2023-06-26T02:00:49;3.77;;;2.93;;
67715;SDS011;54508;43.238;25.306;2023-06-26T02:03:14;5.10;;;3.03;;
67715;SDS011;54508;43.238;25.306;2023-06-26T02:05:40;5.43;;;3.67;;
67715;SDS011;54508;43.238;25.306;2023-06-26T02:08:08;4.80;;;3.30;;
67715;SDS011;54508;43.238;25.306;2023-06-26T02:10:33;4.43;;;2.75;;
67715;SDS011;54508;43.238;25.306;2023-06-26T02:12:59;4.83;;;3.50;;
67715;SDS011;54508;43.238;25.306;2023-06-26T02:15:25;6.88;;;3.05;;
67715;SDS011;54508;43.238;25.306;2023-06-26T02:17:51;9.33;;;3.43;;
67715;SDS011;54508;43.238;25.306;2023-06-26T02:20:16;4.70;;;3.22;;
67715;SDS011;54508;43.238;25.306;2023-06-26T02:22:42;5.07;;;2.67;;
67715;SDS011;54508;43.238;25.306;2023-06-26T02:25:08;4.73;;;3.30;;
67715;SDS011;54508;43.238;25.306;2023-06-26T02:27:34;4.32;;;3.00;;
67715;SDS011;54508;43.238;25.306;2023-06-26T02:29:59;3.50;;;3.13;;
67715;SDS011;54508;43.238;25.306;2023-06-26T02:32:25;7.15;;;3.22;;
67715;SDS011;54508;43.238;25.306;2023-06-26T02:34:50;4.97;;;3.03;;
67715;SDS011;54508;43.238;25.306;2023-06-26T02:37:19;5.35;;;3.35;;
67715;SDS011;54508;43.238;25.306;2023-06-26T02:39:44;3.90;;;2.80;;
67715;SDS011;54508;43.238;25.306;2023-06-26T02:42:10;4.45;;;3.17;;
67715;SDS011;54508;43.238;25.306;2023-06-26T02:44:35;3.85;;;2.92;;
67715;SDS011;54508;43.238;25.306;2023-06-26T02:47:01;4.20;;;3.20;;
67715;SDS011;54508;43.238;25.306;2023-06-26T02:49:26;5.70;;;3.50;;
67715;SDS011;54508;43.238;25.306;2023-06-26T02:51:51;4.10;;;3.27;;
67715;SDS011;54508;43.238;25.306;2023-06-26T02:54:17;6.25;;;3.30;;
67715;SDS011;54508;43.238;25.306;2023-06-26T02:56:42;3.97;;;3.00;;
67715;SDS011;54508;43.238;25.306;2023-06-26T02:59:08;5.07;;;3.13;;
67715;SDS011;54508;43.238;25.306;2023-06-26T03:01:33;4.53;;;2.87;;
67715;SDS011;54508;43.238;25.306;2023-06-26T03:03:59;5.70;;;3.27;;
67715;SDS011;54508;43.238;25.306;2023-06-26T03:06:26;4.80;;;3.20;;
67715;SDS011;54508;43.238;25.306;2023-06-26T03:08:54;5.53;;;3.35;;
67715;SDS011;54508;43.238;25.306;2023-06-26T03:11:19;4.67;;;3.60;;
67715;SDS011;54508;43.238;25.306;2023-06-26T03:13:45;4.75;;;3.10;;
67715;SDS011;54508;43.238;25.306;2023-06-26T03:16:10;4.23;;;3.07;;
67715;SDS011;54508;43.238;25.306;2023-06-26T03:18:36;5.43;;;3.63;;
67715;SDS011;54508;43.238;25.306;2023-06-26T03:21:01;4.93;;;3.40;;
67715;SDS011;54508;43.238;25.306;2023-06-26T03:23:27;5.70;;;3.10;;
67715;SDS011;54508;43.238;25.306;2023-06-26T03:25:53;7.22;;;3.70;;
67715;SDS011;54508;43.238;25.306;2023-06-26T03:28:18;6.45;;;3.70;;
67715;SDS011;54508;43.238;25.306;2023-06-26T03:30:44;4.57;;;3.60;;
67715;SDS011;54508;43.238;25.306;2023-06-26T03:33:09;4.75;;;3.80;;
67715;SDS011;54508;43.238;25.306;2023-06-26T03:35:35;5.10;;;3.50;;
67715;SDS011;54508;43.238;25.306;2023-06-26T03:38:01;5.37;;;3.67;;
67715;SDS011;54508;43.238;25.306;2023-06-26T03:40:26;6.18;;;3.45;;
67715;SDS011;54508;43.238;25.306;2023-06-26T03:42:52;3.57;;;3.10;;
67715;SDS011;54508;43.238;25.306;2023-06-26T03:45:17;8.43;;;3.55;;
67715;SDS011;54508;43.238;25.306;2023-06-26T03:47:44;4.13;;;3.03;;
67715;SDS011;54508;43.238;25.306;2023-06-26T03:50:12;4.15;;;3.40;;
67715;SDS011;54508;43.238;25.306;2023-06-26T03:52:37;4.73;;;3.60;;
67715;SDS011;54508;43.238;25.306;2023-06-26T03:55:03;5.07;;;3.80;;
67715;SDS011;54508;43.238;25.306;2023-06-26T03:57:29;6.47;;;3.70;;
67715;SDS011;54508;43.238;25.306;2023-06-26T03:59:54;6.20;;;4.10;;
67715;SDS011;54508;43.238;25.306;2023-06-26T04:02:20;4.18;;;3.63;;
67715;SDS011;54508;43.238;25.306;2023-06-26T04:04:45;5.93;;;3.77;;
67715;SDS011;54508;43.238;25.306;2023-06-26T04:07:10;5.97;;;3.53;;
67715;SDS011;54508;43.238;25.306;2023-06-26T04:09:36;6.37;;;4.10;;
67715;SDS011;54508;43.238;25.306;2023-06-26T04:12:02;4.72;;;3.45;;
67715;SDS011;54508;43.238;25.306;2023-06-26T04:14:28;3.63;;;3.28;;
67715;SDS011;54508;43.238;25.306;2023-06-26T04:16:53;6.45;;;3.75;;
67715;SDS011;54508;43.238;25.306;2023-06-26T04:19:19;4.53;;;3.57;;
67715;SDS011;54508;43.238;25.306;2023-06-26T04:21:44;5.03;;;3.30;;
67715;SDS011;54508;43.238;25.306;2023-06-26T04:24:10;6.10;;;3.95;;
67715;SDS011;54508;43.238;25.306;2023-06-26T04:26:35;4.47;;;3.28;;
67715;SDS011;54508;43.238;25.306;2023-06-26T04:29:01;4.57;;;3.57;;
67715;SDS011;54508;43.238;25.306;2023-06-26T04:31:26;4.67;;;3.43;;
67715;SDS011;54508;43.238;25.306;2023-06-26T04:33:52;6.97;;;3.77;;
67715;SDS011;54508;43.238;25.306;2023-06-26T04:36:19;5.78;;;3.50;;
67715;SDS011;54508;43.238;25.306;2023-06-26T04:38:45;5.63;;;3.70;;
67715;SDS011;54508;43.238;25.306;2023-06-26T04:41:12;4.30;;;3.60;;
67715;SDS011;54508;43.238;25.306;2023-06-26T04:43:38;4.77;;;3.70;;
67715;SDS011;54508;43.238;25.306;2023-06-26T04:46:03;5.70;;;3.83;;
67715;SDS011;54508;43.238;25.306;2023-06-26T04:48:29;5.00;;;3.67;;
67715;SDS011;54508;43.238;25.306;2023-06-26T04:50:56;5.23;;;4.03;;
67715;SDS011;54508;43.238;25.306;2023-06-26T04:53:22;6.85;;;3.33;;
67715;SDS011;54508;43.238;25.306;2023-06-26T04:55:48;5.17;;;3.60;;
67715;SDS011;54508;43.238;25.306;2023-06-26T04:58:15;4.32;;;3.55;;
67715;SDS011;54508;43.238;25.306;2023-06-26T05:00:41;5.85;;;3.47;;
67715;SDS011;54508;43.238;25.306;2023-06-26T05:03:07;5.72;;;3.67;;
67715;SDS011;54508;43.238;25.306;2023-06-26T05:05:37;4.22;;;3.47;;
67715;SDS011;54508;43.238;25.306;2023-06-26T05:08:18;5.37;;;3.80;;
67715;SDS011;54508;43.238;25.306;2023-06-26T05:10:47;10.50;;;6.63;;
67715;SDS011;54508;43.238;25.306;2023-06-26T05:13:13;17.00;;;6.90;;
67715;SDS011;54508;43.238;25.306;2023-06-26T05:15:42;11.73;;;7.47;;
67715;SDS011;54508;43.238;25.306;2023-06-26T05:18:08;22.67;;;7.47;;
67715;SDS011;54508;43.238;25.306;2023-06-26T05:20:34;20.90;;;8.35;;
67715;SDS011;54508;43.238;25.306;2023-06-26T05:23:01;11.40;;;7.65;;
67715;SDS011;54508;43.238;25.306;2023-06-26T05:25:28;11.02;;;8.05;;
67715;SDS011;54508;43.238;25.306;2023-06-26T05:27:55;19.25;;;8.15;;
67715;SDS011;54508;43.238;25.306;2023-06-26T05:30:22;18.33;;;8.40;;
67715;SDS011;54508;43.238;25.306;2023-06-26T05:32:50;16.67;;;7.80;;
67715;SDS011;54508;43.238;25.306;2023-06-26T05:35:16;12.57;;;7.80;;
67715;SDS011;54508;43.238;25.306;2023-06-26T05:37:42;17.10;;;7.85;;
67715;SDS011;54508;43.238;25.306;2023-06-26T05:40:07;15.57;;;8.57;;
67715;SDS011;54508;43.238;25.306;2023-06-26T05:42:34;14.10;;;8.00;;
67715;SDS011;54508;43.238;25.306;2023-06-26T05:44:59;16.92;;;7.80;;
67715;SDS011;54508;43.238;25.306;2023-06-26T05:47:25;12.20;;;7.80;;
67715;SDS011;54508;43.238;25.306;2023-06-26T05:49:50;14.40;;;7.73;;
67715;SDS011;54508;43.238;25.306;2023-06-26T05:52:16;18.57;;;8.97;;
67715;SDS011;54508;43.238;25.306;2023-06-26T05:54:41;17.02;;;8.05;;
67715;SDS011;54508;43.238;25.306;2023-06-26T05:57:07;34.73;;;19.03;;
67715;SDS011;54508;43.238;25.306;2023-06-26T05:59:33;42.22;;;31.05;;
67715;SDS011;54508;43.238;25.306;2023-06-26T06:02:01;68.03;;;54.85;;
67715;SDS011;54508;43.238;25.306;2023-06-26T06:04:27;27.13;;;15.57;;
67715;SDS011;54508;43.238;25.306;2023-06-26T06:06:52;20.67;;;10.97;;
67715;SDS011;54508;43.238;25.306;2023-06-26T06:09:18;17.60;;;8.93;;
67715;SDS011;54508;43.238;25.306;2023-06-26T06:11:43;18.67;;;9.10;;
67715;SDS011;54508;43.238;25.306;2023-06-26T06:14:09;13.10;;;9.25;;
67715;SDS011;54508;43.238;25.306;2023-06-26T06:16:34;48.03;;;39.20;;
67715;SDS011;54508;43.238;25.306;2023-06-26T06:19:00;55.33;;;41.70;;
67715;SDS011;54508;43.238;25.306;2023-06-26T06:21:25;20.95;;;14.88;;
67715;SDS011;54508;43.238;25.306;2023-06-26T06:23:51;18.33;;;10.52;;
67715;SDS011;54508;43.238;25.306;2023-06-26T06:26:16;18.10;;;10.17;;
67715;SDS011;54508;43.238;25.306;2023-06-26T06:28:42;15.73;;;9.40;;
67715;SDS011;54508;43.238;25.306;2023-06-26T06:31:07;16.55;;;9.05;;
67715;SDS011;54508;43.238;25.306;2023-06-26T06:33:33;10.18;;;8.25;;
67715;SDS011;54508;43.238;25.306;2023-06-26T06:35:59;46.13;;;35.63;;
67715;SDS011;54508;43.238;25.306;2023-06-26T06:38:24;38.60;;;34.40;;
67715;SDS011;54508;43.238;25.306;2023-06-26T06:40:50;32.93;;;28.67;;
67715;SDS011;54508;43.238;25.306;2023-06-26T06:43:16;18.90;;;16.02;;
67715;SDS011;54508;43.238;25.306;2023-06-26T06:45:41;19.37;;;10.67;;
67715;SDS011;54508;43.238;25.306;2023-06-26T06:48:07;12.77;;;9.40;;
67715;SDS011;54508;43.238;25.306;2023-06-26T06:50:32;14.75;;;8.40;;
67715;SDS011;54508;43.238;25.306;2023-06-26T06:52:58;12.23;;;8.50;;
67715;SDS011;54508;43.238;25.306;2023-06-26T06:55:23;11.63;;;8.57;;
67715;SDS011;54508;43.238;25.306;2023-06-26T06:57:50;12.77;;;9.80;;
67715;SDS011;54508;43.238;25.306;2023-06-26T07:00:16;20.65;;;18.48;;
67715;SDS011;54508;43.238;25.306;2023-06-26T07:02:42;22.93;;;13.60;;
67715;SDS011;54508;43.238;25.306;2023-06-26T07:05:09;17.10;;;10.75;;
67715;SDS011;54508;43.238;25.306;2023-06-26T07:07:35;14.40;;;9.23;;
67715;SDS011;54508;43.238;25.306;2023-06-26T07:10:02;18.60;;;9.32;;
67715;SDS011;54508;43.238;25.306;2023-06-26T07:12:29;12.40;;;9.00;;
67715;SDS011;54508;43.238;25.306;2023-06-26T07:14:55;14.43;;;8.20;;
67715;SDS011;54508;43.238;25.306;2023-06-26T07:17:25;16.60;;;8.38;;
67715;SDS011;54508;43.238;25.306;2023-06-26T07:19:51;15.57;;;8.53;;
67715;SDS011;54508;43.238;25.306;2023-06-26T07:22:22;14.38;;;10.07;;
67715;SDS011;54508;43.238;25.306;2023-06-26T07:25:01;15.90;;;8.77;;
67715;SDS011;54508;43.238;25.306;2023-06-26T07:27:26;18.70;;;8.77;;
67715;SDS011;54508;43.238;25.306;2023-06-26T07:29:52;13.13;;;9.63;;
67715;SDS011;54508;43.238;25.306;2023-06-26T07:32:17;20.17;;;11.18;;
67715;SDS011;54508;43.238;25.306;2023-06-26T07:34:43;16.70;;;9.80;;
67715;SDS011;54508;43.238;25.306;2023-06-26T07:37:08;11.23;;;9.43;;
67715;SDS011;54508;43.238;25.306;2023-06-26T07:39:34;14.53;;;8.70;;
67715;SDS011;54508;43.238;25.306;2023-06-26T07:41:59;21.40;;;16.05;;
67715;SDS011;54508;43.238;25.306;2023-06-26T07:44:25;10.30;;;9.07;;
67715;SDS011;54508;43.238;25.306;2023-06-26T07:46:50;10.85;;;7.57;;
67715;SDS011;54508;43.238;25.306;2023-06-26T07:49:16;12.23;;;7.20;;
67715;SDS011;54508;43.238;25.306;2023-06-26T07:51:42;8.47;;;6.83;;
67715;SDS011;54508;43.238;25.306;2023-06-26T07:54:07;8.00;;;7.03;;
67715;SDS011;54508;43.238;25.306;2023-06-26T07:56:51;8.90;;;6.82;;
67715;SDS011;54508;43.238;25.306;2023-06-26T07:59:21;12.07;;;7.15;;
67715;SDS011;54508;43.238;25.306;2023-06-26T08:01:48;7.87;;;6.17;;
67715;SDS011;54508;43.238;25.306;2023-06-26T08:04:14;10.50;;;7.45;;
67715;SDS011;54508;43.238;25.306;2023-06-26T08:06:39;16.57;;;7.17;;
67715;SDS011;54508;43.238;25.306;2023-06-26T08:09:05;13.93;;;6.50;;
67715;SDS011;54508;43.238;25.306;2023-06-26T08:11:32;12.50;;;6.13;;
67715;SDS011;54508;43.238;25.306;2023-06-26T08:13:58;8.32;;;6.90;;
67715;SDS011;54508;43.238;25.306;2023-06-26T08:16:24;9.37;;;7.57;;
67715;SDS011;54508;43.238;25.306;2023-06-26T08:18:49;8.00;;;7.13;;
67715;SDS011;54508;43.238;25.306;2023-06-26T08:21:15;12.53;;;7.13;;
67715;SDS011;54508;43.238;25.306;2023-06-26T08:23:40;8.90;;;6.20;;
67715;SDS011;54508;43.238;25.306;2023-06-26T08:26:06;11.20;;;6.40;;
67715;SDS011;54508;43.238;25.306;2023-06-26T08:28:31;11.67;;;6.63;;
67715;SDS011;54508;43.238;25.306;2023-06-26T08:30:56;13.40;;;7.07;;
67715;SDS011;54508;43.238;25.306;2023-06-26T08:33:22;8.10;;;6.22;;
67715;SDS011;54508;43.238;25.306;2023-06-26T08:35:47;11.05;;;6.60;;
67715;SDS011;54508;43.238;25.306;2023-06-26T08:38:13;9.10;;;6.70;;
67715;SDS011;54508;43.238;25.306;2023-06-26T08:40:38;9.33;;;7.20;;
67715;SDS011;54508;43.238;25.306;2023-06-26T08:43:04;15.93;;;14.25;;
67715;SDS011;54508;43.238;25.306;2023-06-26T08:45:30;12.82;;;7.93;;
67715;SDS011;54508;43.238;25.306;2023-06-26T08:47:56;12.50;;;6.60;;
67715;SDS011;54508;43.238;25.306;2023-06-26T08:50:24;9.93;;;6.20;;
67715;SDS011;54508;43.238;25.306;2023-06-26T08:52:53;9.13;;;6.10;;
67715;SDS011;54508;43.238;25.306;2023-06-26T08:55:24;8.43;;;6.22;;
67715;SDS011;54508;43.238;25.306;2023-06-26T08:57:51;17.67;;;13.15;;
67715;SDS011;54508;43.238;25.306;2023-06-26T09:00:18;15.15;;;10.88;;
67715;SDS011;54508;43.238;25.306;2023-06-26T09:02:44;15.23;;;13.18;;
67715;SDS011;54508;43.238;25.306;2023-06-26T09:05:10;11.23;;;8.18;;
67715;SDS011;54508;43.238;25.306;2023-06-26T09:07:36;10.93;;;6.88;;
67715;SDS011;54508;43.238;25.306;2023-06-26T09:10:01;11.83;;;7.20;;
67715;SDS011;54508;43.238;25.306;2023-06-26T09:12:27;9.20;;;6.57;;
67715;SDS011;54508;43.238;25.306;2023-06-26T09:14:53;9.88;;;6.85;;
67715;SDS011;54508;43.238;25.306;2023-06-26T09:17:24;13.75;;;6.40;;
67715;SDS011;54508;43.238;25.306;2023-06-26T09:19:50;9.77;;;6.57;;
67715;SDS011;54508;43.238;25.306;2023-06-26T09:22:15;8.98;;;6.07;;
67715;SDS011;54508;43.238;25.306;2023-06-26T09:24:43;12.35;;;6.55;;
67715;SDS011;54508;43.238;25.306;2023-06-26T09:27:09;10.77;;;5.80;;
67715;SDS011;54508;43.238;25.306;2023-06-26T09:29:34;12.00;;;6.43;;
67715;SDS011;54508;43.238;25.306;2023-06-26T09:32:00;9.93;;;6.47;;
67715;SDS011;54508;43.238;25.306;2023-06-26T09:34:32;6.13;;;5.22;;
67715;SDS011;54508;43.238;25.306;2023-06-26T09:36:58;11.90;;;5.80;;
67715;SDS011;54508;43.238;25.306;2023-06-26T09:39:29;13.20;;;10.80;;
67715;SDS011;54508;43.238;25.306;2023-06-26T09:41:55;15.63;;;13.85;;
67715;SDS011;54508;43.238;25.306;2023-06-26T09:44:22;13.88;;;12.18;;
67715;SDS011;54508;43.238;25.306;2023-06-26T09:46:48;11.93;;;10.35;;
67715;SDS011;54508;43.238;25.306;2023-06-26T09:49:13;15.50;;;8.18;;
67715;SDS011;54508;43.238;25.306;2023-06-26T09:51:40;10.67;;;6.47;;
67715;SDS011;54508;43.238;25.306;2023-06-26T09:54:07;9.52;;;6.05;;
67715;SDS011;54508;43.238;25.306;2023-06-26T09:56:33;7.45;;;5.85;;
67715;SDS011;54508;43.238;25.306;2023-06-26T09:59:00;5.97;;;5.05;;
67715;SDS011;54508;43.238;25.306;2023-06-26T10:01:27;16.70;;;8.93;;
67715;SDS011;54508;43.238;25.306;2023-06-26T10:03:53;7.68;;;6.53;;
67715;SDS011;54508;43.238;25.306;2023-06-26T10:06:21;6.97;;;6.28;;
67715;SDS011;54508;43.238;25.306;2023-06-26T10:08:50;8.30;;;5.43;;
67715;SDS011;54508;43.238;25.306;2023-06-26T10:11:16;17.65;;;12.10;;
67715;SDS011;54508;43.238;25.306;2023-06-26T10:13:45;12.02;;;9.63;;
67715;SDS011;54508;43.238;25.306;2023-06-26T10:16:14;8.13;;;7.25;;
67715;SDS011;54508;43.238;25.306;2023-06-26T10:18:43;11.73;;;5.72;;
67715;SDS011;54508;43.238;25.306;2023-06-26T10:21:08;10.65;;;5.50;;
67715;SDS011;54508;43.238;25.306;2023-06-26T10:23:35;9.52;;;5.18;;
67715;SDS011;54508;43.238;25.306;2023-06-26T10:26:01;9.90;;;6.45;;
67715;SDS011;54508;43.238;25.306;2023-06-26T10:28:30;10.40;;;7.30;;
67715;SDS011;54508;43.238;25.306;2023-06-26T10:30:56;10.70;;;8.55;;
67715;SDS011;54508;43.238;25.306;2023-06-26T10:33:23;8.60;;;7.65;;
67715;SDS011;54508;43.238;25.306;2023-06-26T10:35:49;5.70;;;5.07;;
67715;SDS011;54508;43.238;25.306;2023-06-26T10:38:14;8.70;;;6.03;;
67715;SDS011;54508;43.238;25.306;2023-06-26T10:40:44;13.90;;;6.03;;
67715;SDS011;54508;43.238;25.306;2023-06-26T10:43:11;7.80;;;5.18;;
67715;SDS011;54508;43.238;25.306;2023-06-26T10:45:48;13.13;;;5.72;;
67715;SDS011;54508;43.238;25.306;2023-06-26T10:48:19;10.02;;;6.78;;
67715;SDS011;54508;43.238;25.306;2023-06-26T10:50:48;8.63;;;6.07;;
67715;SDS011;54508;43.238;25.306;2023-06-26T10:55:51;14.85;;;5.97;;
67715;SDS011;54508;43.238;25.306;2023-06-26T10:58:30;10.18;;;5.90;;
67715;SDS011;54508;43.238;25.306;2023-06-26T11:03:40;6.90;;;5.05;;
67715;SDS011;54508;43.238;25.306;2023-06-26T11:06:24;8.80;;;5.18;;
67715;SDS011;54508;43.238;25.306;2023-06-26T11:08:50;8.43;;;5.10;;
67715;SDS011;54508;43.238;25.306;2023-06-26T11:11:20;6.18;;;4.75;;
67715;SDS011;54508;43.238;25.306;2023-06-26T11:13:47;8.70;;;5.93;;
67715;SDS011;54508;43.238;25.306;2023-06-26T11:16:13;13.05;;;6.30;;
67715;SDS011;54508;43.238;25.306;2023-06-26T11:18:39;8.87;;;5.90;;
67715;SDS011;54508;43.238;25.306;2023-06-26T11:21:06;9.70;;;5.70;;
67715;SDS011;54508;43.238;25.306;2023-06-26T11:23:40;7.47;;;5.30;;
67715;SDS011;54508;43.238;25.306;2023-06-26T11:26:15;8.90;;;5.15;;
67715;SDS011;54508;43.238;25.306;2023-06-26T11:28:50;7.30;;;5.30;;
67715;SDS011;54508;43.238;25.306;2023-06-26T11:31:29;6.27;;;3.73;;
67715;SDS011;54508;43.238;25.306;2023-06-26T11:33:56;7.47;;;4.30;;
67715;SDS011;54508;43.238;25.306;2023-06-26T11:36:23;9.15;;;4.40;;
67715;SDS011;54508;43.238;25.306;2023-06-26T11:38:57;5.55;;;4.57;;
67715;SDS011;54508;43.238;25.306;2023-06-26T11:41:27;6.60;;;4.03;;
67715;SDS011;54508;43.238;25.306;2023-06-26T11:43:59;7.20;;;4.67;;
67715;SDS011;54508;43.238;25.306;2023-06-26T11:46:31;4.50;;;3.85;;
67715;SDS011;54508;43.238;25.306;2023-06-26T11:48:57;8.55;;;5.25;;
67715;SDS011;54508;43.238;25.306;2023-06-26T11:51:23;5.15;;;4.32;;
67715;SDS011;54508;43.238;25.306;2023-06-26T11:53:49;7.95;;;4.10;;
67715;SDS011;54508;43.238;25.306;2023-06-26T11:56:15;7.87;;;3.57;;
67715;SDS011;54508;43.238;25.306;2023-06-26T11:58:58;4.43;;;3.30;;
67715;SDS011;54508;43.238;25.306;2023-06-26T12:01:37;4.15;;;3.42;;
67715;SDS011;54508;43.238;25.306;2023-06-26T12:04:05;4.57;;;3.00;;
67715;SDS011;54508;43.238;25.306;2023-06-26T12:06:35;7.93;;;3.20;;
67715;SDS011;54508;43.238;25.306;2023-06-26T12:09:02;3.45;;;2.63;;
67715;SDS011;54508;43.238;25.306;2023-06-26T12:11:31;6.40;;;3.88;;
67715;SDS011;54508;43.238;25.306;2023-06-26T12:13:57;4.05;;;3.20;;
67715;SDS011;54508;43.238;25.306;2023-06-26T12:16:22;6.22;;;2.78;;
67715;SDS011;54508;43.238;25.306;2023-06-26T12:18:48;9.15;;;3.67;;
67715;SDS011;54508;43.238;25.306;2023-06-26T12:24:09;8.50;;;3.00;;
67715;SDS011;54508;43.238;25.306;2023-06-26T12:26:40;4.43;;;3.00;;
67715;SDS011;54508;43.238;25.306;2023-06-26T12:29:12;4.97;;;3.03;;
67715;SDS011;54508;43.238;25.306;2023-06-26T12:31:42;5.82;;;3.00;;
67715;SDS011;54508;43.238;25.306;2023-06-26T12:34:12;8.60;;;3.53;;
67715;SDS011;54508;43.238;25.306;2023-06-26T12:36:42;7.50;;;3.10;;
67715;SDS011;54508;43.238;25.306;2023-06-26T12:39:10;4.43;;;3.00;;
67715;SDS011;54508;43.238;25.306;2023-06-26T12:41:59;7.72;;;2.90;;
67715;SDS011;54508;43.238;25.306;2023-06-26T12:44:25;9.73;;;3.63;;
67715;SDS011;54508;43.238;25.306;2023-06-26T12:47:01;11.90;;;5.05;;
67715;SDS011;54508;43.238;25.306;2023-06-26T12:49:39;6.07;;;4.93;;
67715;SDS011;54508;43.238;25.306;2023-06-26T12:52:10;17.63;;;5.10;;
67715;SDS011;54508;43.238;25.306;2023-06-26T12:54:38;8.00;;;4.47;;
67715;SDS011;54508;43.238;25.306;2023-06-26T12:57:05;6.45;;;4.43;;
67715;SDS011;54508;43.238;25.306;2023-06-26T12:59:31;6.63;;;3.80;;
67715;SDS011;54508;43.238;25.306;2023-06-26T13:01:57;6.55;;;3.70;;
67715;SDS011;54508;43.238;25.306;2023-06-26T13:04:23;6.95;;;3.67;;
67715;SDS011;54508;43.238;25.306;2023-06-26T13:06:49;7.23;;;3.20;;
67715;SDS011;54508;43.238;25.306;2023-06-26T13:09:15;6.18;;;3.20;;
67715;SDS011;54508;43.238;25.306;2023-06-26T13:11:41;10.90;;;3.20;;
67715;SDS011;54508;43.238;25.306;2023-06-26T13:14:06;5.40;;;3.10;;
67715;SDS011;54508;43.238;25.306;2023-06-26T13:16:32;9.03;;;3.20;;
67715;SDS011;54508;43.238;25.306;2023-06-26T13:18:58;7.50;;;2.80;;
67715;SDS011;54508;43.238;25.306;2023-06-26T13:21:24;11.17;;;2.90;;
67715;SDS011;54508;43.238;25.306;2023-06-26T13:23:50;9.45;;;2.75;;
67715;SDS011;54508;43.238;25.306;2023-06-26T13:26:16;8.47;;;3.60;;
67715;SDS011;54508;43.238;25.306;2023-06-26T13:28:41;7.10;;;3.30;;
67715;SDS011;54508;43.238;25.306;2023-06-26T13:31:07;7.97;;;3.70;;
67715;SDS011;54508;43.238;25.306;2023-06-26T13:33:32;10.40;;;4.40;;
67715;SDS011;54508;43.238;25.306;2023-06-26T13:36:03;11.75;;;4.70;;
67715;SDS011;54508;43.238;25.306;2023-06-26T13:38:32;13.82;;;5.07;;
67715;SDS011;54508;43.238;25.306;2023-06-26T13:40:58;6.38;;;4.60;;
67715;SDS011;54508;43.238;25.306;2023-06-26T13:43:25;9.85;;;4.60;;
67715;SDS011;54508;43.238;25.306;2023-06-26T13:45:52;7.32;;;4.28;;
67715;SDS011;54508;43.238;25.306;2023-06-26T13:48:17;8.80;;;4.05;;
67715;SDS011;54508;43.238;25.306;2023-06-26T13:50:43;6.47;;;3.63;;
67715;SDS011;54508;43.238;25.306;2023-06-26T13:53:11;6.75;;;3.33;;
67715;SDS011;54508;43.238;25.306;2023-06-26T13:55:37;5.07;;;3.33;;
67715;SDS011;54508;43.238;25.306;2023-06-26T13:58:03;5.47;;;3.50;;
67715;SDS011;54508;43.238;25.306;2023-06-26T14:00:30;4.38;;;3.45;;
67715;SDS011;54508;43.238;25.306;2023-06-26T14:02:56;4.72;;;4.03;;
67715;SDS011;54508;43.238;25.306;2023-06-26T14:05:25;6.13;;;3.97;;
67715;SDS011;54508;43.238;25.306;2023-06-26T14:08:16;5.75;;;4.30;;
67715;SDS011;54508;43.238;25.306;2023-06-26T14:10:42;6.27;;;4.57;;
67715;SDS011;54508;43.238;25.306;2023-06-26T14:13:08;4.40;;;4.00;;
67715;SDS011;54508;43.238;25.306;2023-06-26T14:15:34;6.65;;;4.60;;
67715;SDS011;54508;43.238;25.306;2023-06-26T14:18:00;5.25;;;4.20;;
67715;SDS011;54508;43.238;25.306;2023-06-26T14:20:28;6.10;;;5.50;;
67715;SDS011;54508;43.238;25.306;2023-06-26T14:22:53;6.63;;;4.68;;
67715;SDS011;54508;43.238;25.306;2023-06-26T14:25:19;7.57;;;4.65;;
67715;SDS011;54508;43.238;25.306;2023-06-26T14:27:44;9.70;;;4.73;;
67715;SDS011;54508;43.238;25.306;2023-06-26T14:30:10;6.03;;;4.17;;
67715;SDS011;54508;43.238;25.306;2023-06-26T14:32:36;6.20;;;4.40;;
67715;SDS011;54508;43.238;25.306;2023-06-26T14:35:01;8.37;;;3.47;;
67715;SDS011;54508;43.238;25.306;2023-06-26T14:37:28;5.50;;;3.58;;
67715;SDS011;54508;43.238;25.306;2023-06-26T14:39:55;4.22;;;3.55;;
67715;SDS011;54508;43.238;25.306;2023-06-26T14:42:26;7.13;;;4.23;;
67715;SDS011;54508;43.238;25.306;2023-06-26T14:44:52;3.72;;;2.63;;